Isle of North Uist, United Kingdom
Current Conditions -  °F | °C
As of 7:20 AM on Monday 29 Dec 2014 (Local Time) from EGPL Reporting Station
Broken Clouds Broken Clouds  
Wind Chill:   Ceiling: 2500
Heat Index:   Visibility: 6mi
Dew Point:   Wind: 12mph
Humidity: 81%   Direction: 210°SSW
Pressure: 30.56"   Gusts: NA
Location:  57.6°N, 7.16°W
Report Text: EGPL 290720Z 21010KT 9999 BKN025 06/03 Q1035
Loading
Personal Weather Stations






























Interactive Weather Map New forecast layout! Learn more

10-Day Weather Forecast

Advertisements
Track Severe Weather on mobile